Time;durP1;ratioP1;P1;durP2;ratioP2;P2;SDS_P1;SDS_P2;PMS_P1;PMS_P2;Temp;Humidity;BMP_temperature;BMP_pressure;BME280_temperature;BME280_humidity;BME280_pressure;Samples;Min_cycle;Max_cycle;Signal;HPM_P1;HPM_P2
2022/01/19 00:01:35;;;;;;;5.58;2.33;;;;;;;-2.34;57.94;102460.86;1821446;78;27447;-61
2022/01/19 00:04:05;;;;;;;4.08;2.08;;;;;;;-2.33;57.70;102461.29;1788515;78;25972;-60
2022/01/19 00:06:32;;;;;;;8.00;2.02;;;;;;;-2.31;57.76;102466.12;1787606;80;25753;-60
2022/01/19 00:08:59;;;;;;;2.95;1.60;;;;;;;-2.30;57.77;102472.25;1787553;80;28213;-60
2022/01/19 00:11:28;;;;;;;6.65;1.57;;;;;;;-2.30;57.84;102482.80;1787613;80;25727;-60
2022/01/19 00:13:55;;;;;;;7.00;2.15;;;;;;;-2.29;58.25;102484.13;1740109;81;27500;-60
2022/01/19 00:16:22;;;;;;;8.83;2.50;;;;;;;-2.29;57.99;102489.39;1753399;81;25783;-60
2022/01/19 00:18:48;;;;;;;5.90;1.80;;;;;;;-2.28;58.00;102495.07;1807442;79;25777;-60
2022/01/19 00:21:16;;;;;;;4.72;2.17;;;;;;;-2.30;58.10;102485.00;1807394;79;26087;-60
2022/01/19 00:23:43;;;;;;;7.92;2.50;;;;;;;-2.31;58.08;102491.16;1804827;78;25848;-61
2022/01/19 00:26:10;;;;;;;5.67;2.15;;;;;;;-2.33;58.02;102490.75;1785331;80;27478;-61
2022/01/19 00:28:39;;;;;;;4.55;2.17;;;;;;;-2.33;57.91;102481.06;1783215;80;25765;-62
2022/01/19 00:31:06;;;;;;;7.05;2.62;;;;;;;-2.36;57.99;102482.39;1782791;80;25683;-60
2022/01/19 00:33:38;;;;;;;9.23;2.85;;;;;;;-2.36;57.98;102481.08;1783511;79;26925;-60
2022/01/19 00:36:05;;;;;;;9.38;3.35;;;;;;;-2.38;57.96;102478.45;1751917;81;25867;-61
2022/01/19 00:38:32;;;;;;;8.55;3.05;;;;;;;-2.38;57.91;102486.82;1752293;81;27503;-60
2022/01/19 00:41:01;;;;;;;14.78;4.65;;;;;;;-2.38;58.21;102485.05;1761433;79;25770;-60
2022/01/19 00:43:31;;;;;;;7.45;3.12;;;;;;;-2.39;58.18;102488.56;1805377;77;25735;-60
2022/01/19 00:45:57;;;;;;;5.58;2.47;;;;;;;-2.41;58.22;102489.47;1773512;80;26111;-60
2022/01/19 00:48:26;;;;;;;5.92;2.20;;;;;;;-2.47;58.67;102493.47;1773605;80;27470;-61
2022/01/19 00:50:54;;;;;;;5.85;1.75;;;;;;;-2.50;58.48;102488.20;1773857;80;27467;-60
2022/01/19 00:53:21;;;;;;;7.20;4.28;;;;;;;-2.52;58.76;102489.09;1773434;80;25815;-60
2022/01/19 00:55:48;;;;;;;4.08;2.00;;;;;;;-2.54;58.71;102497.89;1794540;79;25754;-60
2022/01/19 00:58:15;;;;;;;6.05;1.95;;;;;;;-2.55;58.76;102498.32;1790040;79;26071;-60
2022/01/19 01:00:44;;;;;;;7.28;2.65;;;;;;;-2.59;59.10;102497.92;1787831;80;25795;-60
2022/01/19 01:03:13;;;;;;;6.35;2.22;;;;;;;-2.59;58.76;102501.88;1787811;79;27422;-61
2022/01/19 01:05:41;;;;;;;5.37;2.60;;;;;;;-2.61;58.92;102499.69;1764193;79;25862;-60
2022/01/19 01:08:13;;;;;;;9.20;2.50;;;;;;;-2.63;59.00;102499.27;1771971;80;25760;-61
2022/01/19 01:10:45;;;;;;;6.78;2.67;;;;;;;-2.67;59.06;102495.78;1777922;79;26970;-61
2022/01/19 01:16:05;;;;;;;4.70;2.02;;;;;;;-2.71;58.93;102492.28;1780360;80;27538;-60
2022/01/19 01:18:33;;;;;;;5.83;2.12;;;;;;;-2.71;59.03;102507.20;1780326;79;25777;-59
2022/01/19 01:21:02;;;;;;;7.73;2.13;;;;;;;-2.72;58.88;102508.08;1780815;79;25714;-61
2022/01/19 01:23:32;;;;;;;6.30;2.02;;;;;;;-2.69;58.96;102508.94;1783581;79;26067;-60
2022/01/19 01:25:59;;;;;;;7.87;2.52;;;;;;;-2.71;58.88;102507.20;1780450;79;25765;-60
2022/01/19 01:28:29;;;;;;;3.30;2.00;;;;;;;-2.68;58.81;102515.95;1802613;78;28255;-60
2022/01/19 01:30:56;;;;;;;6.80;1.82;;;;;;;-2.68;58.86;102510.69;1802395;79;26546;-60
2022/01/19 01:33:25;;;;;;;6.75;2.50;;;;;;;-2.71;58.85;102499.30;1795289;79;25856;-60
2022/01/19 01:35:52;;;;;;;4.20;2.40;;;;;;;-2.72;58.75;102501.07;1780022;80;26159;-60
2022/01/19 01:38:21;;;;;;;4.25;1.92;;;;;;;-2.75;58.71;102494.95;1780923;79;25871;-60
2022/01/19 01:40:52;;;;;;;7.72;2.10;;;;;;;-2.77;58.95;102491.44;1782575;79;28191;-60
2022/01/19 01:43:22;;;;;;;5.85;2.27;;;;;;;-2.85;58.96;102492.35;1797675;78;25793;-60
2022/01/19 01:45:54;;;;;;;8.20;3.15;;;;;;;-2.88;59.00;102495.45;1785140;80;25732;-60
2022/01/19 01:48:21;;;;;;;10.48;2.58;;;;;;;-2.89;59.07;102495.02;1785174;79;26102;-60
2022/01/19 01:53:37;;;;;;;6.83;2.30;;;;;;;-2.99;59.59;102509.53;1782806;80;27483;-60
2022/01/19 01:56:16;;;;;;;7.12;3.37;;;;;;;-3.06;60.12;102505.60;1785441;80;25774;-60
2022/01/19 01:59:03;;;;;;;7.03;2.15;;;;;;;-3.11;60.00;102513.97;1785200;80;25795;-61
2022/01/19 02:01:32;;;;;;;4.50;1.92;;;;;;;-3.15;60.20;102521.87;1800945;77;27279;-61
2022/01/19 02:04:01;;;;;;;8.00;2.27;;;;;;;-3.17;60.22;102524.94;1793368;79;25494;-61
2022/01/19 02:06:33;;;;;;;10.53;2.37;;;;;;;-3.21;60.32;102522.31;1785868;80;28227;-61
2022/01/19 02:09:16;;;;;;;6.42;2.55;;;;;;;-3.22;60.21;102521.45;1770540;79;25767;-62
2022/01/19 02:23:12;;;;;;;3.90;2.10;;;;;;;-3.26;60.69;102544.70;1738276;80;25821;-60
2022/01/19 02:25:41;;;;;;;4.15;1.77;;;;;;;-3.32;61.32;102540.78;1766043;80;25716;-61
2022/01/19 02:41:43;;;;;;;7.95;3.47;;;;;;;-3.61;62.36;102536.43;1738559;81;26767;-60
2022/01/19 02:44:26;;;;;;;5.80;2.60;;;;;;;-3.64;62.15;102544.34;1764066;80;25779;-60
2022/01/19 02:49:09;;;;;;;5.12;2.05;;;;;;;-3.64;62.08;102538.63;1788381;79;27537;-61
2022/01/19 02:49:16;;;;;;;9.38;2.72;;;;;;;-3.63;62.14;102530.31;1786632;80;25799;-60
2022/01/19 02:51:52;;;;;;;7.37;2.27;;;;;;;-3.59;62.26;102525.92;1790145;80;25771;-60
2022/01/19 02:54:24;;;;;;;9.53;2.42;;;;;;;-3.64;62.38;102522.84;1760693;80;25808;-60
2022/01/19 02:56:55;;;;;;;6.65;2.52;;;;;;;-3.64;62.33;102524.16;1735172;81;26332;-60
2022/01/19 02:59:33;;;;;;;8.63;2.33;;;;;;;-3.64;62.25;102523.30;1735202;82;28161;-61
2022/01/19 03:10:11;;;;;;;5.75;2.05;;;;;;;-3.80;63.29;102525.92;1739440;80;25804;-60
2022/01/19 03:12:42;;;;;;;9.13;2.80;;;;;;;-3.79;63.20;102526.36;1785751;80;28154;-60
2022/01/19 03:15:11;;;;;;;5.90;2.35;;;;;;;-3.81;63.13;102525.92;1777174;80;25771;-60
2022/01/19 03:17:39;;;;;;;6.42;2.55;;;;;;;-3.81;62.88;102532.05;1775432;79;25465;-61
2022/01/19 03:20:09;;;;;;;6.30;2.72;;;;;;;-3.72;63.01;102536.91;1775582;79;26683;-62
2022/01/19 03:22:48;;;;;;;6.70;2.87;;;;;;;-3.67;62.88;102535.13;1775631;80;26485;-61
2022/01/19 03:25:13;;;;;;;8.73;3.60;;;;;;;-3.60;62.93;102537.33;1775623;78;28239;-61
2022/01/19 03:27:45;;;;;;;5.90;2.90;;;;;;;-3.55;62.95;102536.86;1775280;79;25770;-61
2022/01/19 03:30:13;;;;;;;7.85;2.80;;;;;;;-3.52;62.80;102535.56;1774703;80;25698;-62
2022/01/19 03:32:40;;;;;;;6.78;2.17;;;;;;;-3.46;62.91;102530.28;1775029;80;26103;-62
2022/01/19 03:35:10;;;;;;;6.70;2.72;;;;;;;-3.45;62.71;102530.72;1784167;79;25774;-62
2022/01/19 03:37:38;;;;;;;7.72;2.87;;;;;;;-3.41;62.61;102531.58;1786595;79;27472;-62
2022/01/19 03:40:08;;;;;;;9.78;4.08;;;;;;;-3.40;62.42;102526.30;1786422;78;25457;-61
2022/01/19 03:42:37;;;;;;;6.05;3.00;;;;;;;-3.42;62.36;102520.62;1818404;78;25773;-62
2022/01/19 03:45:07;;;;;;;7.70;2.98;;;;;;;-3.43;62.43;102518.44;1794244;78;26085;-61
2022/01/19 03:47:45;;;;;;;8.60;3.22;;;;;;;-3.38;62.57;102523.70;1786783;80;25730;-62
2022/01/19 03:50:10;;;;;;;9.05;3.02;;;;;;;-3.36;62.46;102528.52;1787178;79;27448;-62
2022/01/19 03:52:38;;;;;;;7.25;3.05;;;;;;;-3.35;62.68;102519.72;1777951;79;25793;-61
2022/01/19 03:55:08;;;;;;;7.35;3.12;;;;;;;-3.42;62.23;102517.98;1776441;80;25777;-61
2022/01/19 03:57:35;;;;;;;13.48;4.33;;;;;;;-3.38;62.41;102519.75;1775327;79;26091;-61
2022/01/19 04:00:06;;;;;;;10.82;3.77;;;;;;;-3.41;62.41;102527.22;1775568;80;25727;-61
2022/01/19 04:02:36;;;;;;;9.90;4.05;;;;;;;-3.47;62.54;102522.84;1780999;78;27573;-62
2022/01/19 04:05:11;;;;;;;10.58;3.60;;;;;;;-3.50;62.79;102532.04;1785607;80;25719;-61
2022/01/19 04:07:35;;;;;;;13.55;3.80;;;;;;;-3.48;62.67;102534.23;1786766;78;25729;-61
2022/01/19 04:10:09;;;;;;;14.58;6.08;;;;;;;-3.50;62.82;102533.35;1782135;78;27169;-61
2022/01/19 04:15:16;;;;;;;7.42;3.83;;;;;;;-3.54;63.01;102531.59;1741988;82;28574;-61
2022/01/19 04:17:50;;;;;;;7.97;3.95;;;;;;;-3.52;62.96;102532.47;1741948;81;25934;-61
2022/01/19 04:20:12;;;;;;;11.83;4.15;;;;;;;-3.45;63.03;102526.77;1741587;81;25790;-61
2022/01/19 04:22:39;;;;;;;10.70;3.92;;;;;;;-3.40;63.11;102534.20;1734190;81;26085;-60
2022/01/19 04:25:09;;;;;;;7.83;3.42;;;;;;;-3.37;62.84;102532.89;1761179;80;25827;-61
2022/01/19 04:27:37;;;;;;;14.10;6.25;;;;;;;-3.36;62.86;102536.42;1738874;80;28111;-62
2022/01/19 04:30:10;;;;;;;14.63;5.25;;;;;;;-3.35;62.87;102537.72;1746386;81;25724;-61
2022/01/19 04:35:27;;;;;;;10.05;5.40;;;;;;;-3.20;63.21;102547.34;1757940;80;27089;-61
2022/01/19 04:46:27;;;;;;;12.47;5.15;;;;;;;-3.16;62.36;102528.47;1743576;82;25755;-63
2022/01/19 05:05:21;;;;;;;18.67;7.20;;;;;;;-3.35;62.97;102534.19;1762991;81;25728;-62
2022/01/19 05:07:53;;;;;;;24.35;11.80;;;;;;;-3.40;63.24;102526.77;1738705;82;27494;-62
2022/01/19 05:15:39;;;;;;;22.60;9.85;;;;;;;-3.47;63.49;102513.63;1751115;80;26056;-61
2022/01/19 05:18:12;;;;;;;15.03;8.10;;;;;;;-3.51;64.21;102511.00;1772552;79;25867;-61
2022/01/19 05:20:41;;;;;;;18.02;7.78;;;;;;;-3.56;64.10;102516.27;1785150;79;28154;-61
2022/01/19 05:23:09;;;;;;;20.90;7.15;;;;;;;-3.61;64.00;102515.38;1785365;80;25455;-61
2022/01/19 05:25:38;;;;;;;17.00;6.62;;;;;;;-3.64;64.38;102521.53;1785962;80;25697;-61
2022/01/19 05:28:10;;;;;;;16.12;7.15;;;;;;;-3.67;64.66;102525.92;1784881;79;26069;-61
2022/01/19 05:30:38;;;;;;;15.68;7.15;;;;;;;-3.67;64.52;102529.87;1781157;79;25668;-62
2022/01/19 05:33:05;;;;;;;21.23;7.90;;;;;;;-3.68;64.81;102523.75;1774327;80;28120;-61
2022/01/19 05:35:35;;;;;;;17.85;7.67;;;;;;;-3.67;64.56;102518.89;1774316;80;25712;-62
2022/01/19 05:38:16;;;;;;;23.05;9.58;;;;;;;-3.60;64.88;102525.48;1765883;80;25747;-62
2022/01/19 05:40:50;;;;;;;21.35;7.97;;;;;;;-3.55;64.79;102518.03;1786432;79;26121;-62
2022/01/19 05:43:17;;;;;;;22.52;7.37;;;;;;;-3.46;64.88;102524.59;1787302;79;25697;-62
2022/01/19 05:45:46;;;;;;;22.35;9.78;;;;;;;-3.42;64.60;102532.45;1785175;80;29577;-62
2022/01/19 05:48:19;;;;;;;20.77;8.50;;;;;;;-3.41;64.50;102539.06;1784288;79;25820;-61
2022/01/19 05:50:48;;;;;;;20.12;10.23;;;;;;;-3.38;64.51;102546.92;1784068;80;25700;-62
2022/01/19 05:53:18;;;;;;;31.70;12.23;;;;;;;-3.42;64.45;102539.94;1784455;78;26123;-63
2022/01/19 05:55:46;;;;;;;30.00;9.40;;;;;;;-3.45;64.48;102533.34;1796053;79;25837;-63
2022/01/19 05:58:16;;;;;;;26.52;10.40;;;;;;;-3.48;64.56;102545.18;1774743;79;27526;-63
2022/01/19 06:00:45;;;;;;;29.37;11.80;;;;;;;-3.52;64.62;102546.08;1798875;79;25655;-63
2022/01/19 06:03:12;;;;;;;31.60;10.75;;;;;;;-3.62;65.14;102542.56;1794672;79;25764;-62
2022/01/19 06:05:44;;;;;;;22.20;9.65;;;;;;;-3.67;65.75;102541.70;1779468;79;27023;-62
2022/01/19 06:08:39;;;;;;;20.27;8.63;;;;;;;-3.72;67.11;102549.59;1773513;80;25705;-62
2022/01/19 06:10:54;;;;;;;27.35;10.90;;;;;;;-3.85;67.30;102542.15;1694823;82;27412;-62
2022/01/19 06:13:19;;;;;;;26.65;8.85;;;;;;;-3.90;67.69;102553.54;1718601;82;25896;-62
2022/01/19 06:15:47;;;;;;;27.07;9.68;;;;;;;-3.98;68.03;102551.78;1730157;82;25657;-62
2022/01/19 06:18:15;;;;;;;33.73;11.48;;;;;;;-4.05;68.53;102555.30;1730058;82;26086;-62
2022/01/19 06:20:44;;;;;;;23.30;9.23;;;;;;;-4.07;68.47;102555.72;1727275;82;25760;-62
2022/01/19 06:23:12;;;;;;;18.98;7.95;;;;;;;-4.10;69.33;102559.23;1706701;82;27516;-62
2022/01/19 06:25:40;;;;;;;30.72;10.95;;;;;;;-4.13;69.44;102560.98;1770503;80;25648;-62
2022/01/19 06:28:10;;;;;;;31.02;12.65;;;;;;;-4.14;70.15;102563.16;1772312;79;25778;-62
2022/01/19 06:30:37;;;;;;;24.92;10.23;;;;;;;-4.19;70.43;102568.83;1758957;80;26103;-62
2022/01/19 06:33:06;;;;;;;24.95;9.75;;;;;;;-4.22;70.58;102575.42;1737249;82;25694;-62
2022/01/19 06:35:35;;;;;;;31.93;10.68;;;;;;;-4.21;70.50;102570.16;1738283;82;27516;-63
2022/01/19 06:38:08;;;;;;;38.85;9.85;;;;;;;-4.17;70.35;102572.34;1764205;80;25664;-61
2022/01/19 06:40:39;;;;;;;22.73;9.25;;;;;;;-4.10;70.44;102565.80;1780246;78;25774;-62
2022/01/19 06:43:09;;;;;;;26.50;9.63;;;;;;;-4.02;70.20;102567.55;1793600;78;26874;-60
2022/01/19 06:45:36;;;;;;;24.32;9.83;;;;;;;-3.98;69.94;102564.03;1786745;80;25440;-60
2022/01/19 06:48:06;;;;;;;24.65;9.50;;;;;;;-3.90;70.26;102562.32;1746778;81;29579;-62
2022/01/19 06:50:33;;;;;;;19.67;8.65;;;;;;;-3.88;70.17;102555.28;1742046;82;25835;-59
2022/01/19 06:53:01;;;;;;;21.95;8.73;;;;;;;-3.83;70.23;102568.02;1744411;81;25491;-58
2022/01/19 06:55:31;;;;;;;26.15;10.75;;;;;;;-3.81;70.74;102575.44;1741571;81;26118;-59
2022/01/19 06:58:01;;;;;;;24.25;9.45;;;;;;;-3.79;71.14;102571.52;1741020;82;25788;-60
2022/01/19 07:00:39;;;;;;;27.10;10.05;;;;;;;-3.75;70.59;102565.37;1680958;83;27495;-60
2022/01/19 07:03:17;;;;;;;33.38;11.95;;;;;;;-3.69;70.81;102574.59;1774339;80;25703;-60
2022/01/19 07:05:46;;;;;;;28.92;9.73;;;;;;;-3.65;70.85;102571.52;1776011;80;25754;-59
2022/01/19 07:08:29;;;;;;;18.62;8.15;;;;;;;-3.60;70.56;102569.75;1678195;80;26140;-60
2022/01/19 07:10:56;;;;;;;20.97;8.63;;;;;;;-3.46;70.14;102572.37;1778918;80;25772;-60
2022/01/19 07:13:25;;;;;;;27.75;10.58;;;;;;;-3.37;69.97;102568.42;1787871;79;29667;-60
2022/01/19 07:15:53;;;;;;;18.98;9.33;;;;;;;-3.28;69.68;102563.59;1788118;80;25843;-60
2022/01/19 07:18:21;;;;;;;19.42;8.23;;;;;;;-3.17;69.58;102573.64;1783078;80;25744;-61
2022/01/19 07:20:51;;;;;;;18.73;8.23;;;;;;;-3.10;69.71;102572.33;1772093;79;26061;-61
2022/01/19 07:23:20;;;;;;;25.15;10.20;;;;;;;-3.06;69.61;102576.27;1771438;80;25470;-61
2022/01/19 07:25:48;;;;;;;33.45;13.15;;;;;;;-3.00;69.36;102572.72;1803669;78;27470;-61
2022/01/19 07:28:15;;;;;;;38.70;13.13;;;;;;;-2.93;69.41;102576.22;1810445;78;25772;-61
2022/01/19 07:30:44;;;;;;;20.92;9.63;;;;;;;-2.87;69.18;102584.98;1811179;78;25629;-60
2022/01/19 07:33:12;;;;;;;25.60;10.13;;;;;;;-2.78;68.99;102576.16;1805434;78;26865;-61
2022/01/19 07:35:42;;;;;;;18.30;10.20;;;;;;;-2.67;68.78;102569.55;1799371;79;25729;-61
2022/01/19 07:38:10;;;;;;;20.57;9.13;;;;;;;-2.55;68.61;102563.34;1798638;78;27542;-61
2022/01/19 07:40:37;;;;;;;26.68;10.03;;;;;;;-2.41;68.42;102567.22;1808030;79;25819;-61
2022/01/19 07:43:10;;;;;;;26.45;10.58;;;;;;;-2.26;68.34;102557.90;1810896;79;25753;-60
2022/01/19 07:45:50;;;;;;;23.07;8.98;;;;;;;-2.05;68.18;102547.64;1776776;79;28217;-60
2022/01/19 07:48:21;;;;;;;26.30;10.30;;;;;;;-1.85;67.79;102545.30;1793917;79;25734;-60
2022/01/19 07:51:11;;;;;;;24.27;9.90;;;;;;;-1.66;67.46;102532.81;1797841;78;27565;-60
2022/01/19 07:53:42;;;;;;;29.02;10.08;;;;;;;-1.49;67.19;102531.35;1798186;79;25770;-60
2022/01/19 07:56:13;;;;;;;23.47;10.63;;;;;;;-1.35;66.68;102540.45;1796056;78;25782;-60
2022/01/19 07:58:42;;;;;;;29.65;10.55;;;;;;;-1.22;66.45;102531.09;1761340;79;26334;-60
2022/01/19 08:01:11;;;;;;;28.07;10.45;;;;;;;-1.07;66.30;102535.30;1798745;79;25708;-60
2022/01/19 08:03:48;;;;;;;25.60;11.68;;;;;;;-0.90;66.11;102530.73;1797437;79;27539;-60
2022/01/19 08:06:17;;;;;;;32.90;13.18;;;;;;;-0.71;65.75;102526.08;1796387;79;25501;-60
2022/01/19 08:08:45;;;;;;;33.10;12.23;;;;;;;-0.59;65.00;102527.67;1783258;80;25738;-60
2022/01/19 08:11:11;;;;;;;23.45;10.70;;;;;;;-0.44;64.54;102541.56;1773724;80;26110;-60
2022/01/19 08:13:43;;;;;;;21.45;11.05;;;;;;;-0.32;64.24;102537.44;1774824;80;25719;-61
2022/01/19 08:16:10;;;;;;;23.98;10.72;;;;;;;-0.08;63.74;102527.37;1773308;79;27512;-60
2022/01/19 08:18:37;;;;;;;32.23;11.38;;;;;;;0.13;63.31;102523.53;1774707;80;25697;-60
2022/01/19 08:21:05;;;;;;;26.15;10.38;;;;;;;0.24;63.50;102516.72;1776576;80;25771;-60
2022/01/19 08:23:34;;;;;;;26.70;10.03;;;;;;;0.28;63.11;102517.97;1775465;79;26087;-60
2022/01/19 08:26:05;;;;;;;25.37;9.08;;;;;;;0.30;62.67;102510.88;1809087;78;27227;-60
2022/01/19 08:28:36;;;;;;;19.57;9.95;;;;;;;0.30;62.54;102510.88;1781834;80;27475;-60
2022/01/19 08:31:04;;;;;;;22.25;9.18;;;;;;;0.25;62.35;102506.09;1782506;79;26007;-59
2022/01/19 08:33:51;;;;;;;25.48;8.88;;;;;;;0.22;62.07;102500.87;1779391;78;25865;-59
2022/01/19 08:36:21;;;;;;;27.00;9.10;;;;;;;0.26;61.79;102513.14;1776697;79;26109;-60
2022/01/19 08:39:08;;;;;;;19.85;9.18;;;;;;;0.30;61.82;102512.20;1784122;78;25825;-60
2022/01/19 08:41:36;;;;;;;19.98;9.03;;;;;;;0.41;61.49;102519.05;1783127;78;27530;-59
2022/01/19 08:44:05;;;;;;;24.25;10.08;;;;;;;0.41;61.17;102514.66;1779747;80;26433;-60
2022/01/19 08:46:40;;;;;;;26.87;10.70;;;;;;;0.47;61.06;102509.70;1784039;79;25721;-60
2022/01/19 08:49:14;;;;;;;22.75;9.10;;;;;;;0.54;60.50;102499.88;1800652;79;26183;-60
2022/01/19 08:51:46;;;;;;;25.85;9.30;;;;;;;0.60;59.82;102491.34;1778216;78;25724;-60
2022/01/19 08:54:18;;;;;;;19.85;9.43;;;;;;;0.75;59.52;102498.12;1775678;80;28223;-60
2022/01/19 08:56:50;;;;;;;29.45;9.68;;;;;;;0.88;59.86;102493.91;1759840;80;25694;-62
2022/01/19 08:59:16;;;;;;;20.75;9.55;;;;;;;1.07;60.32;102495.72;1778359;80;25854;-60
2022/01/19 09:01:43;;;;;;;26.25;9.45;;;;;;;1.22;59.27;102494.53;1782154;79;26080;-60
2022/01/19 09:04:10;;;;;;;19.42;9.78;;;;;;;1.28;59.08;102490.87;1774508;80;25785;-60
2022/01/19 09:06:37;;;;;;;27.60;10.18;;;;;;;1.34;58.75;102478.80;1776311;80;27478;-60
2022/01/19 09:09:04;;;;;;;33.73;10.15;;;;;;;1.32;58.12;102471.32;1770641;80;25808;-60
2022/01/19 09:11:31;;;;;;;19.80;9.18;;;;;;;1.31;58.37;102471.79;1770571;80;26086;-60
2022/01/19 09:13:58;;;;;;;22.45;9.30;;;;;;;1.30;58.88;102463.87;1774268;80;26095;-60
2022/01/19 09:16:26;;;;;;;24.55;10.40;;;;;;;1.25;57.88;102459.53;1775737;79;25909;-60
2022/01/19 09:18:58;;;;;;;32.65;11.85;;;;;;;1.25;58.06;102458.68;1777919;78;27519;-60
2022/01/19 09:21:25;;;;;;;30.52;11.97;;;;;;;1.21;57.64;102457.84;1779543;78;25754;-60
2022/01/19 09:23:53;;;;;;;44.75;13.10;;;;;;;1.48;57.81;102451.96;1775958;78;25644;-60
2022/01/19 09:26:20;;;;;;;31.20;10.38;;;;;;;1.69;57.25;102449.25;1779125;78;26085;-60
2022/01/19 09:28:47;;;;;;;33.98;9.93;;;;;;;1.82;57.09;102457.34;1794553;78;25795;-60
2022/01/19 09:31:17;;;;;;;33.80;10.98;;;;;;;1.92;56.62;102446.50;1797492;78;27428;-60
2022/01/19 09:33:44;;;;;;;20.35;8.58;;;;;;;2.08;56.26;102438.55;1789293;79;25632;-60
2022/01/19 09:36:30;;;;;;;19.70;9.05;;;;;;;2.17;54.86;102434.77;1788776;79;25707;-60
2022/01/19 09:38:46;;;;;;;17.95;8.95;;;;;;;2.07;54.76;102427.51;1775133;79;26122;-60
2022/01/19 09:41:13;;;;;;;25.68;10.35;;;;;;;2.10;55.51;102424.78;1774424;79;25752;-60
2022/01/19 09:43:47;;;;;;;26.55;9.70;;;;;;;2.11;55.00;102418.53;1788782;79;28249;-59
2022/01/19 09:46:15;;;;;;;21.53;9.60;;;;;;;2.18;55.25;102408.19;1778180;79;27222;-60
2022/01/19 09:48:47;;;;;;;26.77;10.45;;;;;;;2.44;54.97;102395.97;1777427;78;25736;-60
2022/01/19 09:51:14;;;;;;;29.05;9.80;;;;;;;3.41;53.54;102393.48;1779270;80;26031;-61
2022/01/19 09:53:42;;;;;;;20.80;9.10;;;;;;;4.34;51.45;102381.01;1790158;80;25763;-59
2022/01/19 09:56:09;;;;;;;24.37;9.30;;;;;;;5.05;52.43;102379.25;1790431;80;28095;-60
2022/01/19 09:58:40;;;;;;;20.62;8.28;;;;;;;5.53;48.72;102371.49;1777611;80;25501;-61
2022/01/19 10:01:13;;;;;;;19.30;7.80;;;;;;;6.19;48.26;102361.59;1776718;80;25737;-61
2022/01/19 10:03:37;;;;;;;22.85;7.92;;;;;;;6.64;47.12;102367.61;1774139;80;26146;-61
2022/01/19 10:06:10;;;;;;;20.12;8.90;;;;;;;7.04;44.73;102363.91;1777029;80;25918;-61
2022/01/19 10:08:50;;;;;;;23.15;7.78;;;;;;;7.45;43.80;102358.81;1775353;80;32480;-61
2022/01/19 10:16:58;;;;;;;17.80;8.18;;;;;;;8.45;43.91;102354.09;1775417;80;25762;-62
2022/01/19 10:16:59;;;;;;;21.85;9.23;;;;;;;9.96;42.66;102346.86;1779552;79;26080;-62
2022/01/19 10:19:41;;;;;;;19.45;8.35;;;;;;;9.72;40.23;102342.02;1779037;80;26142;-61
2022/01/19 10:22:17;;;;;;;21.00;7.83;;;;;;;9.44;39.22;102339.63;1740938;82;28302;-61
2022/01/19 10:25:02;;;;;;;15.32;7.33;;;;;;;8.79;38.84;102343.81;1749861;80;25866;-61
2022/01/19 10:27:42;;;;;;;19.17;7.60;;;;;;;8.61;39.58;102331.81;1751450;81;25695;-61
2022/01/19 10:30:19;;;;;;;15.60;6.70;;;;;;;8.13;40.33;102328.52;1751055;81;26086;-61
2022/01/19 10:32:55;;;;;;;17.32;7.55;;;;;;;7.81;40.71;102333.77;1748579;81;25795;-61
2022/01/19 10:35:38;;;;;;;18.65;7.08;;;;;;;7.45;41.25;102325.80;1739893;81;27456;-62
2022/01/19 10:38:25;;;;;;;18.93;7.00;;;;;;;6.66;41.48;102306.42;1748004;80;25710;-60
2022/01/19 10:41:08;;;;;;;17.20;6.62;;;;;;;6.66;41.48;102306.42;1758655;79;25781;-61
2022/01/19 10:43:38;;;;;;;;;;;;;;;6.21;42.35;102310.30;1743432;81;26097;-61
2022/01/19 10:46:30;;;;;;;20.30;6.80;;;;;;;5.73;42.49;102304.37;1757477;81;25731;-61
2022/01/19 10:49:10;;;;;;;15.15;6.37;;;;;;;5.45;43.37;102306.89;1745035;81;29580;-61
2022/01/19 10:51:48;;;;;;;17.98;6.08;;;;;;;5.35;43.86;102311.76;1775704;80;42985;-61
2022/01/19 10:54:20;;;;;;;13.98;6.22;;;;;;;5.23;43.92;102321.15;1774265;80;25694;-61
2022/01/19 10:56:54;;;;;;;14.85;6.05;;;;;;;5.04;44.33;102317.48;1779909;79;26135;-61
2022/01/19 10:59:22;;;;;;;12.13;5.80;;;;;;;4.95;44.31;102321.37;1786613;78;25778;-61
2022/01/19 11:02:00;;;;;;;14.90;7.45;;;;;;;4.85;44.47;102310.23;1783819;79;27496;-61
2022/01/19 11:04:35;;;;;;;16.65;7.47;;;;;;;4.75;44.72;102311.52;1782366;80;25943;-61
2022/01/19 11:07:12;;;;;;;14.98;6.20;;;;;;;4.52;44.29;102311.96;1776792;80;25514;-61
2022/01/19 11:09:45;;;;;;;14.40;5.92;;;;;;;4.46;44.61;102301.06;1779636;79;26065;-61
2022/01/19 11:12:17;;;;;;;17.75;6.28;;;;;;;4.62;45.30;102297.32;1782877;80;25735;-61
2022/01/19 11:14:45;;;;;;;20.30;6.15;;;;;;;4.64;44.65;102294.14;1802920;79;27452;-61
2022/01/19 11:17:13;;;;;;;17.07;6.40;;;;;;;4.62;44.42;102288.47;1799557;79;25777;-61
2022/01/19 11:19:46;;;;;;;17.20;7.08;;;;;;;4.72;43.79;102288.96;1802593;78;25761;-61
2022/01/19 11:23:01;;;;;;;10.82;4.92;;;;;;;4.68;43.84;102280.22;1801954;79;26520;-62
2022/01/19 11:26:00;;;;;;;16.40;5.55;;;;;;;4.66;43.34;102278.11;1796084;79;25789;-61
2022/01/19 11:28:33;;;;;;;9.83;4.20;;;;;;;4.51;43.99;102267.09;1799025;79;28219;-60
2022/01/19 11:31:08;;;;;;;18.42;3.87;;;;;;;4.50;44.35;102260.51;1802601;78;30991;-61
2022/01/19 11:33:52;;;;;;;13.25;4.95;;;;;;;4.48;43.96;102257.88;1802548;79;25745;-62
2022/01/19 11:36:24;;;;;;;14.07;4.87;;;;;;;4.33;43.75;102252.71;1799256;79;26154;-61
2022/01/19 11:39:05;;;;;;;17.92;5.00;;;;;;;4.31;44.46;102246.56;1802497;79;25674;-62
2022/01/19 11:41:51;;;;;;;12.65;4.30;;;;;;;4.38;44.21;102243.20;1801057;79;27646;-61
2022/01/19 11:44:30;;;;;;;21.93;6.78;;;;;;;4.57;44.97;102250.48;1785115;79;25626;-61
2022/01/19 11:47:11;;;;;;;21.80;6.03;;;;;;;4.88;44.64;102253.23;1777505;79;25440;-61
2022/01/19 11:50:15;;;;;;;27.55;7.50;;;;;;;4.96;43.02;102246.66;1791376;79;26093;-61
2022/01/19 11:52:47;;;;;;;20.72;5.25;;;;;;;4.98;43.12;102244.78;1794596;79;25726;-61
2022/01/19 11:55:19;;;;;;;;;;;;;;;4.98;42.62;102224.77;1760097;81;27593;-61
2022/01/19 11:57:50;;;;;;;17.80;7.10;;;;;;;4.96;41.70;102225.33;1731440;82;25990;-62
2022/01/19 12:00:24;;;;;;;12.73;4.40;;;;;;;4.89;42.69;102214.97;1730411;82;26017;-62
2022/01/19 12:02:58;;;;;;;10.25;3.60;;;;;;;4.84;42.99;102216.02;1737577;82;26095;-62
2022/01/19 12:05:33;;;;;;;13.78;4.65;;;;;;;4.95;42.91;102222.70;1738028;82;25885;-61
2022/01/19 12:08:33;;;;;;;7.37;3.42;;;;;;;5.18;43.03;102216.41;1731761;82;27489;-62
2022/01/19 12:11:22;;;;;;;9.70;4.10;;;;;;;5.27;42.53;102220.02;1736772;81;25718;-61
2022/01/19 12:14:19;;;;;;;11.28;3.72;;;;;;;5.35;42.20;102223.70;1732954;82;25663;-61
2022/01/19 12:17:06;;;;;;;15.05;3.92;;;;;;;5.47;42.82;102220.95;1707944;83;26214;-62
2022/01/19 12:19:41;;;;;;;9.05;3.83;;;;;;;5.78;42.46;102213.78;1759760;80;25775;-62
2022/01/19 12:22:22;;;;;;;14.70;4.03;;;;;;;5.94;41.93;102190.36;1738342;81;28154;-61
2022/01/19 12:25:11;;;;;;;9.50;3.90;;;;;;;6.02;42.30;102200.73;1747026;80;25680;-61
2022/01/19 12:27:38;;;;;;;13.10;3.92;;;;;;;6.01;41.85;102200.34;1721394;82;25807;-61
2022/01/19 12:30:13;;;;;;;10.43;3.50;;;;;;;5.90;41.65;102200.33;1740914;81;26032;-61
2022/01/19 12:32:54;;;;;;;13.32;4.55;;;;;;;5.82;41.18;102190.95;1732216;82;25829;-61
2022/01/19 12:35:35;;;;;;;9.05;3.67;;;;;;;5.63;40.35;102194.45;1742369;82;27429;-62
2022/01/19 12:38:19;;;;;;;7.70;3.72;;;;;;;5.51;41.04;102185.20;1741600;82;25782;-61
2022/01/19 12:40:49;;;;;;;8.05;3.33;;;;;;;5.38;40.71;102184.84;1739873;81;25761;-61
2022/01/19 12:43:33;;;;;;;8.95;3.40;;;;;;;5.29;40.87;102188.80;1749143;81;26379;-61
2022/01/19 12:46:03;;;;;;;13.80;3.42;;;;;;;5.28;40.84;102181.72;1762333;81;25856;-61
2022/01/19 12:48:46;;;;;;;9.83;3.65;;;;;;;5.25;41.57;102171.17;1757347;81;28133;-61
2022/01/19 12:51:35;;;;;;;11.48;4.08;;;;;;;5.31;40.67;102170.92;1757296;81;25732;-62
2022/01/19 12:54:03;;;;;;;22.05;4.37;;;;;;;5.21;39.75;102178.05;1676420;85;25824;-62
2022/01/19 12:56:34;;;;;;;5.47;2.70;;;;;;;4.97;39.62;102167.06;1735797;81;26971;-62
2022/01/19 12:59:07;;;;;;;6.22;2.80;;;;;;;4.81;39.66;102172.16;1757365;81;25484;-62
2022/01/19 13:01:34;;;;;;;8.00;2.70;;;;;;;4.79;39.59;102171.84;1757267;81;27477;-62